Time;durP1;ratioP1;P1;durP2;ratioP2;P2;SDS_P1;SDS_P2;PMS_P1;PMS_P2;Temp;Humidity;BMP_temperature;BMP_pressure;BME280_temperature;BME280_humidity;BME280_pressure;Samples;Min_cycle;Max_cycle;Signal;HPM_P1;HPM_P2
2022/07/15 00:00:22;;;;;;;1.75;1.10;;;;;;;24.29;50.54;99898.09;5589018;31;33948;-68
2022/07/15 00:03:25;;;;;;;3.22;1.20;;;;;;;24.30;51.25;99942.31;5588997;31;33895;-67
2022/07/15 00:06:28;;;;;;;5.07;1.40;;;;;;;24.21;50.37;99955.53;5589277;31;34672;-67
2022/07/15 00:12:57;;;;;;;5.35;1.25;;;;;;;24.46;49.22;99944.75;5588677;31;34820;-68
2022/07/15 00:16:00;;;;;;;2.10;1.20;;;;;;;24.45;49.23;99967.53;5574856;31;33178;-68
2022/07/15 00:19:03;;;;;;;4.40;1.40;;;;;;;24.78;48.19;99949.13;5587985;31;34597;-65
2022/07/15 00:22:07;;;;;;;3.62;1.40;;;;;;;24.87;48.29;99931.25;5588958;31;34605;-66
2022/07/15 00:25:11;;;;;;;1.95;1.20;;;;;;;25.21;47.15;99935.00;5588710;31;33922;-67
2022/07/15 00:28:15;;;;;;;5.05;1.30;;;;;;;25.57;46.28;99918.63;5588534;31;34719;-67
2022/07/15 00:31:18;;;;;;;1.30;1.20;;;;;;;25.70;46.05;99915.31;5587637;31;34027;-68
2022/07/15 00:34:21;;;;;;;2.97;1.00;;;;;;;25.75;45.98;99926.19;5588513;31;35227;-68
2022/07/15 00:37:23;;;;;;;3.33;1.30;;;;;;;25.68;46.54;99918.31;5588665;31;34638;-68
2022/07/15 00:40:27;;;;;;;3.75;1.58;;;;;;;25.67;46.80;99897.66;5588321;31;33934;-67
2022/07/15 00:43:30;;;;;;;1.58;1.10;;;;;;;25.69;46.33;99895.50;5589052;31;34143;-68
2022/07/15 00:46:34;;;;;;;4.30;1.60;;;;;;;25.62;46.51;99892.25;5591272;31;34594;-68
2022/07/15 00:49:37;;;;;;;6.97;1.23;;;;;;;25.50;46.84;99889.84;5590843;31;34800;-68
2022/07/15 00:52:43;;;;;;;2.05;1.10;;;;;;;25.21;47.81;99880.72;5590884;31;34152;-68
2022/07/15 00:55:46;;;;;;;1.30;1.00;;;;;;;25.04;48.10;99882.91;5590845;31;35205;-68
2022/07/15 00:58:52;;;;;;;3.42;1.20;;;;;;;25.01;48.38;99884.28;5589894;31;32568;-68
2022/07/15 01:01:56;;;;;;;4.22;1.20;;;;;;;24.98;48.22;99886.75;5590769;31;34754;-68
2022/07/15 01:05:04;;;;;;;1.95;1.10;;;;;;;24.94;48.42;99896.47;5590750;31;33941;-68
2022/07/15 01:08:06;;;;;;;1.40;1.10;;;;;;;24.88;48.80;99913.88;5589732;31;33305;-68
2022/07/15 01:11:10;;;;;;;3.30;1.10;;;;;;;24.71;50.27;99938.53;5590614;31;35133;-69
2022/07/15 01:14:13;;;;;;;2.45;1.10;;;;;;;24.58;49.48;99949.94;5590617;31;34341;-68
2022/07/15 01:17:17;;;;;;;6.37;1.42;;;;;;;24.47;49.94;99954.53;5590684;31;34055;-69
2022/07/15 01:20:20;;;;;;;5.37;1.10;;;;;;;24.36;50.28;99958.28;5590655;31;34008;-69
2022/07/15 01:23:24;;;;;;;1.27;0.93;;;;;;;24.27;50.89;99965.31;5590073;31;32649;-69
2022/07/15 01:26:28;;;;;;;4.60;1.15;;;;;;;24.13;51.64;99983.13;5590578;31;34643;-69
2022/07/15 01:29:32;;;;;;;2.60;1.10;;;;;;;24.02;51.62;99979.56;5589506;31;33732;-68
2022/07/15 01:32:35;;;;;;;5.57;1.25;;;;;;;24.11;51.93;99986.09;5590576;31;33946;-69
2022/07/15 01:35:38;;;;;;;2.00;1.20;;;;;;;24.26;51.88;99993.50;5589860;31;32401;-68
2022/07/15 01:38:42;;;;;;;1.20;1.10;;;;;;;24.32;52.10;99984.31;5590710;31;34071;-68
2022/07/15 01:41:54;;;;;;;2.05;1.30;;;;;;;24.40;52.60;99991.13;5590427;31;34075;-69
2022/07/15 01:44:59;;;;;;;1.50;1.30;;;;;;;24.52;52.66;99988.97;5589412;31;33845;-68
2022/07/15 01:48:02;;;;;;;4.53;1.70;;;;;;;24.59;52.76;99984.09;5590694;31;34324;-68
2022/07/15 01:51:09;;;;;;;8.50;1.52;;;;;;;24.54;53.04;99971.34;5590627;31;34058;-68
2022/07/15 01:54:13;;;;;;;2.65;1.37;;;;;;;24.47;53.45;99972.69;5590480;31;33944;-67
2022/07/15 01:57:18;;;;;;;2.15;1.50;;;;;;;24.38;53.83;99969.69;5589855;31;33977;-67
2022/07/15 02:00:21;;;;;;;4.82;1.60;;;;;;;24.30;54.38;99972.94;5576778;31;32791;-68
2022/07/15 02:03:26;;;;;;;3.10;1.50;;;;;;;24.18;54.77;99956.91;5590536;31;33890;-66
2022/07/15 02:06:29;;;;;;;4.82;1.30;;;;;;;24.22;54.83;99965.31;5590163;31;34012;-68
2022/07/15 02:09:34;;;;;;;1.35;1.20;;;;;;;24.15;55.11;99970.16;5590134;31;34632;-67
2022/07/15 02:12:37;;;;;;;3.40;1.50;;;;;;;24.11;55.11;99990.72;5590281;31;34674;-68
2022/07/15 02:15:41;;;;;;;3.15;1.58;;;;;;;24.07;55.27;99979.59;5590393;31;34794;-67
2022/07/15 02:18:44;;;;;;;3.22;1.40;;;;;;;24.05;55.44;99967.41;5590197;31;34629;-68
2022/07/15 02:21:47;;;;;;;3.67;1.50;;;;;;;24.07;54.98;99954.38;5590510;31;33990;-67
2022/07/15 02:24:50;;;;;;;2.37;1.10;;;;;;;24.20;53.64;99967.50;5589296;31;34021;-68
2022/07/15 02:27:56;;;;;;;1.67;1.25;;;;;;;24.23;53.07;99969.66;5589032;31;32650;-68
2022/07/15 02:30:59;;;;;;;1.95;1.10;;;;;;;24.24;52.73;99974.00;5589757;31;33958;-67
2022/07/15 02:34:03;;;;;;;1.55;0.95;;;;;;;24.29;52.21;99998.41;5590020;31;34063;-69
2022/07/15 02:37:06;;;;;;;2.95;1.17;;;;;;;24.33;51.64;100028.50;5589860;31;34006;-68
2022/07/15 02:40:11;;;;;;;1.52;1.00;;;;;;;24.37;50.89;100046.69;5589984;31;34029;-69
2022/07/15 02:43:15;;;;;;;1.50;1.00;;;;;;;24.35;51.07;100050.75;5576450;31;32604;-68
2022/07/15 02:46:18;;;;;;;1.55;0.90;;;;;;;24.34;51.33;100070.81;5589762;31;34229;-68
2022/07/15 02:49:22;;;;;;;3.20;1.37;;;;;;;24.29;51.92;100071.63;5589809;31;33902;-68
2022/07/15 02:52:26;;;;;;;1.58;0.90;;;;;;;24.26;52.42;100072.13;5588753;31;32403;-69
2022/07/15 02:55:29;;;;;;;2.15;1.02;;;;;;;24.09;52.50;100071.47;5590164;31;34096;-69
2022/07/15 02:58:32;;;;;;;3.12;1.00;;;;;;;24.03;52.43;100062.50;5589773;31;34678;-68
2022/07/15 03:01:36;;;;;;;5.07;1.00;;;;;;;23.98;52.77;100072.50;5589041;31;32403;-69
2022/07/15 03:04:39;;;;;;;1.60;1.10;;;;;;;23.94;52.12;100076.81;5575926;31;33379;-68
2022/07/15 03:07:42;;;;;;;0.95;0.80;;;;;;;23.95;52.36;100071.16;5589219;31;34015;-68
2022/07/15 03:10:45;;;;;;;2.10;0.95;;;;;;;23.95;52.03;100067.63;5590095;31;34611;-69
2022/07/15 03:13:48;;;;;;;1.90;0.90;;;;;;;23.94;51.07;100052.44;5589640;31;34395;-68
2022/07/15 03:16:51;;;;;;;2.30;0.80;;;;;;;24.03;50.75;100048.97;5589457;31;34158;-69
2022/07/15 03:19:57;;;;;;;2.55;0.70;;;;;;;24.12;48.34;100047.37;5589531;31;34157;-68
2022/07/15 03:23:00;;;;;;;1.42;0.65;;;;;;;24.14;48.63;100037.09;5588980;31;34620;-68
2022/07/15 03:26:03;;;;;;;0.80;0.70;;;;;;;24.16;47.91;100037.66;5589858;31;34391;-68
2022/07/15 03:29:06;;;;;;;1.05;0.70;;;;;;;24.25;46.50;100057.75;5588670;31;34007;-68
2022/07/15 03:32:10;;;;;;;1.98;0.90;;;;;;;24.24;46.07;100053.44;5589573;31;34704;-67
2022/07/15 03:35:13;;;;;;;1.55;0.70;;;;;;;24.35;44.96;100062.38;5589592;31;34657;-68
2022/07/15 03:38:16;;;;;;;0.80;0.57;;;;;;;24.33;45.20;100064.56;5589511;31;34242;-68
2022/07/15 03:41:20;;;;;;;0.90;0.52;;;;;;;24.27;44.96;100062.91;5575607;31;32458;-68
2022/07/15 03:44:23;;;;;;;1.98;1.15;;;;;;;24.25;45.04;100044.19;5588825;31;35176;-68
2022/07/15 03:47:27;;;;;;;0.90;0.60;;;;;;;24.21;45.48;100032.25;5589507;31;35441;-67
2022/07/15 03:50:30;;;;;;;2.03;0.70;;;;;;;24.21;45.08;100048.53;5589548;31;34113;-68
2022/07/15 03:53:33;;;;;;;0.70;0.60;;;;;;;24.18;46.04;100032.81;5589027;31;34118;-67
2022/07/15 03:56:37;;;;;;;1.92;0.60;;;;;;;24.01;47.34;100047.59;5589058;31;34682;-67
2022/07/15 03:59:39;;;;;;;0.90;0.70;;;;;;;23.94;47.43;100057.84;5589325;31;34004;-68
2022/07/15 04:02:42;;;;;;;3.10;0.70;;;;;;;23.92;48.35;100073.53;5589276;31;34619;-68
2022/07/15 04:05:49;;;;;;;2.22;0.70;;;;;;;23.75;50.85;100076.44;5589300;31;34740;-68
2022/07/15 04:08:52;;;;;;;2.00;0.60;;;;;;;23.48;51.90;100078.44;5588883;31;34547;-68
2022/07/15 04:11:55;;;;;;;1.12;0.65;;;;;;;23.42;51.99;100082.13;5588976;31;34530;-67
2022/07/15 04:14:58;;;;;;;2.42;0.70;;;;;;;23.48;50.00;100078.44;5589072;31;34396;-67
2022/07/15 04:18:01;;;;;;;3.70;0.80;;;;;;;23.54;49.96;100082.78;5589090;31;34518;-67
2022/07/15 04:21:05;;;;;;;0.98;0.75;;;;;;;23.65;50.10;100081.78;5577708;31;34038;-67
2022/07/15 04:24:08;;;;;;;0.98;0.88;;;;;;;23.68;48.90;100083.97;5591043;31;35288;-68
2022/07/15 04:27:12;;;;;;;0.77;0.62;;;;;;;23.75;49.18;100090.00;5591105;31;34578;-66
2022/07/15 04:30:15;;;;;;;1.42;0.82;;;;;;;23.69;49.78;100093.72;5590250;31;33726;-67
2022/07/15 04:33:19;;;;;;;1.08;0.70;;;;;;;23.61;49.81;100105.06;5591273;31;34655;-67
2022/07/15 04:36:23;;;;;;;1.10;0.80;;;;;;;23.59;49.88;100102.59;5591574;31;33942;-66
2022/07/15 04:39:26;;;;;;;1.00;0.88;;;;;;;23.62;49.82;100112.13;5590108;31;33213;-66
2022/07/15 04:42:36;;;;;;;7.10;1.17;;;;;;;23.47;50.91;100117.41;5590952;31;34940;-68
2022/07/15 04:45:42;;;;;;;3.75;0.85;;;;;;;23.36;51.93;100133.53;5590965;31;34002;-66
2022/07/15 04:52:08;;;;;;;1.92;0.88;;;;;;;22.98;53.88;100127.47;5590723;31;33925;-68
2022/07/15 04:55:13;;;;;;;5.45;1.50;;;;;;;22.47;59.72;100134.97;5590832;31;33980;-69
2022/07/15 04:58:16;;;;;;;4.12;1.02;;;;;;;21.25;67.55;100146.59;5590872;31;33883;-68
2022/07/15 05:01:19;;;;;;;2.80;1.27;;;;;;;20.62;72.55;100160.19;5590841;31;34644;-69
2022/07/15 05:04:29;;;;;;;1.48;1.00;;;;;;;20.06;79.22;100154.63;5590697;31;33974;-69
2022/07/15 05:07:33;;;;;;;2.90;1.10;;;;;;;19.77;79.55;100157.22;5591213;31;33956;-68
2022/07/15 05:10:37;;;;;;;3.35;1.20;;;;;;;19.71;83.37;100155.44;5589909;31;33087;-67
2022/07/15 05:13:40;;;;;;;3.20;1.60;;;;;;;19.87;79.78;100152.06;5590835;31;35387;-68
2022/07/15 05:16:43;;;;;;;3.05;1.40;;;;;;;19.69;79.88;100151.38;5589682;31;34273;-68
2022/07/15 05:19:46;;;;;;;3.42;1.40;;;;;;;19.69;82.53;100159.44;5590471;31;34544;-67
2022/07/15 05:22:49;;;;;;;3.42;1.50;;;;;;;19.91;79.31;100147.84;5590006;31;32905;-67
2022/07/15 05:25:53;;;;;;;2.85;1.30;;;;;;;20.00;79.84;100147.50;5589651;31;32893;-66
2022/07/15 05:28:56;;;;;;;3.00;1.70;;;;;;;19.96;79.37;100157.91;5590342;31;34687;-67
2022/07/15 05:31:59;;;;;;;1.77;1.40;;;;;;;19.93;81.18;100166.47;5576178;31;34887;-67
2022/07/15 05:35:04;;;;;;;4.93;1.58;;;;;;;19.91;80.12;100169.41;5590382;31;34676;-66
2022/07/15 05:38:07;;;;;;;1.30;1.20;;;;;;;19.76;80.41;100173.59;5589936;31;33956;-65
2022/07/15 05:41:11;;;;;;;2.28;1.17;;;;;;;19.54;81.90;100184.09;5590286;31;33918;-66
2022/07/15 05:44:14;;;;;;;3.42;1.60;;;;;;;19.58;83.16;100189.84;5590089;31;35263;-67
2022/07/15 05:47:18;;;;;;;3.03;1.50;;;;;;;19.55;82.54;100187.62;5589495;31;34036;-67
2022/07/15 05:50:22;;;;;;;1.80;1.48;;;;;;;19.72;83.35;100199.34;5590243;31;34567;-68
2022/07/15 05:53:25;;;;;;;2.10;1.40;;;;;;;19.64;83.08;100195.12;5590102;31;34037;-67
2022/07/15 05:56:28;;;;;;;4.62;1.40;;;;;;;19.71;83.27;100190.44;5589464;31;34603;-68
2022/07/15 05:59:31;;;;;;;6.95;1.62;;;;;;;19.79;83.10;100224.28;5589329;31;32540;-66
2022/07/15 06:02:35;;;;;;;1.90;1.40;;;;;;;19.68;84.23;100231.28;5589564;31;32466;-67
2022/07/15 06:05:38;;;;;;;3.42;1.52;;;;;;;19.58;85.03;100231.03;5589234;31;33169;-67
2022/07/15 06:08:41;;;;;;;5.43;1.77;;;;;;;19.66;84.29;100257.59;5589968;31;34703;-66
2022/07/15 06:11:46;;;;;;;2.12;1.40;;;;;;;19.51;86.41;100268.78;5589811;31;35193;-68
2022/07/15 06:14:50;;;;;;;1.55;1.20;;;;;;;19.59;85.92;100289.19;5589799;31;34356;-68
2022/07/15 06:17:54;;;;;;;5.43;1.70;;;;;;;19.43;86.75;100287.09;5590068;31;34650;-67
2022/07/15 06:20:57;;;;;;;2.08;1.58;;;;;;;19.45;86.92;100276.97;5590158;31;34251;-67
2022/07/15 06:24:01;;;;;;;2.97;1.50;;;;;;;19.40;86.59;100271.41;5590241;31;33995;-68
2022/07/15 06:27:07;;;;;;;2.55;1.87;;;;;;;19.28;87.59;100259.75;5589100;31;33905;-68
2022/07/15 06:30:10;;;;;;;6.47;1.65;;;;;;;19.19;87.91;100255.75;5590089;31;34112;-67
2022/07/15 06:33:13;;;;;;;6.70;1.83;;;;;;;19.31;88.21;100268.22;5589672;31;34080;-67
2022/07/15 06:36:16;;;;;;;4.03;1.80;;;;;;;19.27;88.84;100266.19;5589876;31;34693;-67
2022/07/15 06:39:20;;;;;;;2.35;1.62;;;;;;;19.18;88.99;100263.00;5589808;31;34606;-68
2022/07/15 06:42:24;;;;;;;4.30;1.90;;;;;;;19.28;88.79;100251.69;5588907;31;33923;-67
2022/07/15 06:45:31;;;;;;;3.42;2.12;;;;;;;19.20;89.01;100234.03;5588824;31;32883;-67
2022/07/15 06:48:34;;;;;;;2.70;1.60;;;;;;;19.17;91.43;100255.97;5589869;31;33921;-67
2022/07/15 06:51:38;;;;;;;4.90;2.03;;;;;;;19.14;91.74;100277.94;5589848;31;34628;-68
2022/07/15 06:54:41;;;;;;;2.87;1.73;;;;;;;19.05;91.07;100269.38;5589604;31;33929;-69
2022/07/15 06:57:44;;;;;;;2.72;1.70;;;;;;;19.05;91.33;100272.06;5588685;31;32524;-68
2022/07/15 07:00:47;;;;;;;3.65;1.92;;;;;;;19.22;90.14;100261.50;5589458;31;34314;-67
2022/07/15 07:03:50;;;;;;;6.90;2.05;;;;;;;19.33;89.73;100271.50;5589320;31;34170;-67
2022/07/15 07:07:02;;;;;;;2.47;1.70;;;;;;;19.41;90.11;100270.38;5589683;31;33930;-66
2022/07/15 07:10:07;;;;;;;3.75;2.00;;;;;;;19.41;89.42;100308.81;5589425;31;34555;-66
2022/07/15 07:13:10;;;;;;;3.17;2.05;;;;;;;19.54;88.77;100332.09;5589474;31;34329;-66
2022/07/15 07:16:13;;;;;;;4.60;1.75;;;;;;;19.43;88.93;100338.22;5588711;31;33333;-66
2022/07/15 07:19:16;;;;;;;4.80;2.10;;;;;;;19.53;88.43;100342.03;5588490;31;33999;-66
2022/07/15 07:22:19;;;;;;;3.85;1.85;;;;;;;19.47;87.94;100358.25;5589528;31;34127;-66
2022/07/15 07:25:22;;;;;;;5.32;2.10;;;;;;;19.60;88.58;100359.97;5589749;31;33997;-67
2022/07/15 07:28:24;;;;;;;2.33;1.73;;;;;;;19.79;87.07;100370.47;5589354;31;34202;-68
2022/07/15 07:31:27;;;;;;;2.42;1.67;;;;;;;19.69;85.46;100362.13;5588043;31;32214;-68
2022/07/15 07:34:30;;;;;;;2.80;1.98;;;;;;;19.86;85.09;100364.97;5588222;31;32573;-67
2022/07/15 07:37:38;;;;;;;3.60;1.85;;;;;;;19.81;84.57;100354.06;5588537;31;34034;-67
2022/07/15 07:40:41;;;;;;;2.70;1.80;;;;;;;19.86;84.61;100340.75;5588992;31;34655;-69
2022/07/15 07:43:44;;;;;;;3.35;1.95;;;;;;;19.66;85.03;100351.78;5589368;31;33919;-67
2022/07/15 07:46:47;;;;;;;3.65;1.90;;;;;;;19.68;85.58;100349.72;5589203;31;34351;-69
2022/07/15 07:49:50;;;;;;;2.33;1.90;;;;;;;19.64;85.47;100363.84;5589020;31;34452;-66
2022/07/15 07:52:53;;;;;;;2.97;1.90;;;;;;;19.75;85.12;100363.88;5588818;31;34174;-68
2022/07/15 07:55:57;;;;;;;2.70;1.70;;;;;;;19.75;85.34;100363.09;5587897;31;34236;-68
2022/07/15 07:58:59;;;;;;;2.90;1.77;;;;;;;20.06;84.37;100362.00;5588835;31;34680;-69
2022/07/15 08:02:03;;;;;;;2.83;2.00;;;;;;;20.06;83.87;100379.00;5589091;31;33985;-68
2022/07/15 08:05:08;;;;;;;2.17;1.98;;;;;;;19.94;84.47;100378.94;5588851;31;35192;-68
2022/07/15 08:08:13;;;;;;;2.80;2.40;;;;;;;19.98;84.66;100365.87;5588812;31;34224;-67
2022/07/15 08:11:19;;;;;;;2.55;2.12;;;;;;;19.94;84.80;100380.84;5589044;31;33976;-68
2022/07/15 08:14:21;;;;;;;3.87;2.10;;;;;;;19.96;84.81;100362.56;5588516;31;35254;-68
2022/07/15 08:17:24;;;;;;;2.70;2.10;;;;;;;20.16;84.57;100379.25;5587446;31;34325;-68
2022/07/15 08:20:29;;;;;;;4.00;2.10;;;;;;;20.36;83.42;100392.47;5588886;31;34059;-68
2022/07/15 08:23:32;;;;;;;2.90;1.87;;;;;;;20.19;84.25;100394.13;5587546;31;32658;-68
2022/07/15 08:26:35;;;;;;;2.87;2.00;;;;;;;20.08;84.88;100400.31;5587748;31;32278;-67
2022/07/15 08:29:38;;;;;;;5.80;2.70;;;;;;;20.06;84.53;100397.03;5587578;31;32360;-67
2022/07/15 08:32:41;;;;;;;4.80;2.28;;;;;;;20.22;83.64;100397.19;5588250;31;35323;-67
2022/07/15 08:35:45;;;;;;;3.60;2.22;;;;;;;20.31;86.11;100382.38;5587455;31;33255;-67
2022/07/15 08:38:48;;;;;;;4.45;2.50;;;;;;;20.35;84.53;100391.62;5587204;31;32986;-68
2022/07/15 08:41:52;;;;;;;4.32;2.30;;;;;;;20.62;83.48;100402.00;5587963;31;33939;-67
2022/07/15 08:44:54;;;;;;;2.70;2.00;;;;;;;20.72;81.94;100408.44;5587826;31;33974;-66
2022/07/15 08:48:01;;;;;;;3.92;2.25;;;;;;;20.80;82.21;100389.22;5587959;31;34209;-69
2022/07/15 08:51:07;;;;;;;3.75;2.40;;;;;;;20.73;81.43;100393.91;5586956;31;32477;-68
2022/07/15 08:54:12;;;;;;;3.78;2.50;;;;;;;20.62;83.89;100400.09;5587887;31;34173;-69
2022/07/15 08:57:15;;;;;;;6.43;2.53;;;;;;;20.52;84.23;100405.25;5588101;31;35297;-70
2022/07/15 09:00:20;;;;;;;3.53;2.45;;;;;;;20.48;86.17;100390.59;5588178;31;34001;-69
2022/07/15 09:03:23;;;;;;;3.55;2.22;;;;;;;20.22;86.39;100424.13;5587676;31;33905;-69
2022/07/15 09:06:32;;;;;;;3.58;2.55;;;;;;;20.15;86.53;100427.97;5588917;31;33005;-68
2022/07/15 09:09:36;;;;;;;5.40;2.60;;;;;;;20.35;84.58;100432.03;5590525;31;33998;-67
2022/07/15 09:12:42;;;;;;;4.72;2.33;;;;;;;20.57;85.23;100413.47;5590635;31;34662;-68
2022/07/15 09:15:44;;;;;;;7.28;2.37;;;;;;;20.78;85.54;100393.19;5590550;31;34656;-69
2022/07/15 09:18:49;;;;;;;3.37;2.55;;;;;;;20.97;82.77;100402.81;5590681;31;34454;-69
2022/07/15 09:22:03;;;;;;;3.67;2.37;;;;;;;20.91;81.94;100451.50;5576636;31;32560;-68
2022/07/15 09:25:13;;;;;;;5.65;2.60;;;;;;;20.71;82.53;100449.94;5589821;31;34097;-67
2022/07/15 09:28:16;;;;;;;3.20;2.47;;;;;;;20.80;81.85;100423.47;5590826;31;33940;-68
2022/07/15 09:36:01;;;;;;;2.58;2.15;;;;;;;21.07;80.36;100426.50;5590611;31;34313;-69
2022/07/15 09:38:52;;;;;;;4.32;2.45;;;;;;;21.17;79.91;100424.88;5590238;31;33871;-68
2022/07/15 09:41:56;;;;;;;4.15;2.22;;;;;;;21.44;79.91;100432.50;5589965;31;33899;-69
2022/07/15 09:45:20;;;;;;;6.47;2.72;;;;;;;21.62;78.59;100429.63;5590217;31;34267;-68
2022/07/15 09:48:25;;;;;;;8.70;2.63;;;;;;;21.86;75.08;100433.91;5589409;31;32441;-68
2022/07/15 09:51:27;;;;;;;6.03;2.20;;;;;;;22.06;72.02;100425.41;5590289;31;33974;-67
2022/07/15 09:54:34;;;;;;;4.32;1.98;;;;;;;22.42;68.24;100426.84;5589253;31;34109;-66
2022/07/15 09:57:37;;;;;;;5.45;2.20;;;;;;;22.43;66.91;100421.19;5590305;31;34317;-67
2022/07/15 10:00:40;;;;;;;3.90;2.10;;;;;;;22.76;64.17;100427.72;5590219;31;34161;-67
2022/07/15 10:03:44;;;;;;;5.30;2.00;;;;;;;22.74;64.02;100443.38;5589721;31;34595;-68
2022/07/15 10:06:48;;;;;;;3.20;2.15;;;;;;;22.82;64.01;100454.59;5589255;31;32805;-67
2022/07/15 10:10:12;;;;;;;2.45;1.73;;;;;;;22.89;62.35;100447.16;5589076;31;34182;-68
2022/07/15 10:13:20;;;;;;;5.25;2.00;;;;;;;23.05;61.54;100428.44;5590021;31;34570;-67
2022/07/15 10:16:22;;;;;;;3.62;2.15;;;;;;;23.06;60.82;100401.12;5588608;31;34609;-68
2022/07/15 10:19:48;;;;;;;3.83;1.58;;;;;;;23.19;61.89;100356.66;5589374;31;33887;-66
2022/07/15 10:23:23;;;;;;;5.70;1.57;;;;;;;23.48;55.35;100336.44;5590220;31;34034;-68
2022/07/15 10:26:43;;;;;;;4.50;1.70;;;;;;;23.58;51.01;100357.41;5589991;31;33956;-69
2022/07/15 10:29:46;;;;;;;4.85;1.48;;;;;;;23.33;49.89;100379.59;5582603;31;232019;-69
2022/07/15 10:33:18;;;;;;;2.05;1.27;;;;;;;23.44;49.94;100378.63;5589440;31;34071;-68
2022/07/15 10:36:21;;;;;;;5.30;1.35;;;;;;;23.49;44.75;100364.34;5589136;31;33462;-66
2022/07/15 10:39:29;;;;;;;5.20;1.37;;;;;;;23.65;42.73;100361.59;5588636;31;34168;-65
2022/07/15 10:43:01;;;;;;;3.45;1.23;;;;;;;24.00;42.52;100363.03;5590096;31;34602;-68
2022/07/15 10:46:17;;;;;;;1.52;1.20;;;;;;;24.20;40.59;100355.94;5589293;31;33872;-68
2022/07/15 10:49:20;;;;;;;5.95;1.62;;;;;;;24.78;40.14;100359.63;5588816;31;33419;-68
2022/07/15 10:52:27;;;;;;;2.65;1.40;;;;;;;25.00;39.57;100362.22;5588658;31;32505;-68
2022/07/15 10:55:30;;;;;;;3.22;1.20;;;;;;;25.22;38.15;100364.81;5589613;31;34079;-66
2022/07/15 10:58:33;;;;;;;3.55;1.40;;;;;;;26.06;36.19;100365.34;5588903;31;34566;-68
2022/07/15 11:01:41;;;;;;;2.20;1.10;;;;;;;28.10;32.92;100359.13;5589447;31;34622;-68
2022/07/15 11:04:45;;;;;;;7.70;1.15;;;;;;;27.69;31.46;100361.31;5588946;31;34367;-66
2022/07/15 11:07:48;;;;;;;2.87;1.12;;;;;;;27.40;31.93;100361.12;5588866;31;33922;-67
2022/07/15 11:10:50;;;;;;;3.87;1.40;;;;;;;26.32;31.83;100368.94;5589982;31;34039;-67
2022/07/15 11:13:53;;;;;;;2.83;1.12;;;;;;;25.91;32.90;100363.41;5588769;31;32787;-68
2022/07/15 11:16:56;;;;;;;5.57;1.25;;;;;;;25.94;32.69;100375.69;5588592;31;32472;-66
2022/07/15 11:20:11;;;;;;;3.75;1.50;;;;;;;25.54;31.86;100357.31;5589394;31;34034;-67
2022/07/15 11:23:16;;;;;;;2.83;1.20;;;;;;;25.36;31.40;100350.47;5588877;31;32388;-68
2022/07/15 11:26:43;;;;;;;3.45;1.23;;;;;;;25.27;32.19;100353.97;5589270;31;34240;-67
2022/07/15 11:29:51;;;;;;;3.83;1.42;;;;;;;25.30;32.56;100367.00;5588727;31;34221;-66
2022/07/15 11:32:58;;;;;;;7.85;2.30;;;;;;;25.85;31.42;100352.81;5589516;31;34159;-66
2022/07/15 11:36:02;;;;;;;4.28;1.45;;;;;;;26.34;30.89;100353.97;5588997;31;34112;-68
2022/07/15 11:39:05;;;;;;;2.50;1.30;;;;;;;27.31;31.13;100376.41;5589176;31;35386;-67
2022/07/15 11:45:39;;;;;;;2.17;1.30;;;;;;;26.33;28.69;100365.97;5589080;31;33863;-68
2022/07/15 11:48:42;;;;;;;3.47;1.27;;;;;;;26.01;28.55;100354.47;5589064;31;34698;-67
2022/07/15 11:51:48;;;;;;;2.42;1.35;;;;;;;25.97;30.16;100366.97;5589125;31;34009;-67
2022/07/15 11:54:51;;;;;;;4.47;1.45;;;;;;;26.64;29.52;100363.22;5588933;31;34615;-68
2022/07/15 11:57:56;;;;;;;3.35;1.02;;;;;;;26.11;27.95;100354.47;5589110;31;33941;-69
2022/07/15 12:01:01;;;;;;;4.22;1.30;;;;;;;25.95;27.71;100366.41;5588227;31;32667;-68
2022/07/15 12:04:04;;;;;;;2.05;1.33;;;;;;;25.63;28.47;100358.47;5588939;31;35398;-68
2022/07/15 12:07:11;;;;;;;4.82;2.05;;;;;;;25.54;29.09;100365.47;5588961;31;34125;-67
2022/07/15 12:10:15;;;;;;;2.67;1.23;;;;;;;25.55;29.14;100369.03;5589286;31;34099;-67
2022/07/15 12:13:18;;;;;;;5.07;1.40;;;;;;;25.20;29.09;100375.09;5588674;31;33890;-68
2022/07/15 12:16:25;;;;;;;2.60;1.20;;;;;;;25.25;29.28;100369.69;5589129;31;34236;-68
2022/07/15 12:19:30;;;;;;;2.33;1.30;;;;;;;25.27;29.00;100373.75;5575562;31;32461;-68
2022/07/15 12:22:34;;;;;;;3.42;1.52;;;;;;;25.69;28.28;100371.00;5588958;31;34593;-68
2022/07/15 12:25:37;;;;;;;1.77;1.27;;;;;;;26.21;27.66;100380.88;5587644;31;33346;-67
2022/07/15 12:28:41;;;;;;;2.12;1.40;;;;;;;26.37;27.60;100388.81;5587863;31;32625;-68
2022/07/15 12:31:54;;;;;;;2.30;1.12;;;;;;;30.60;23.42;100378.56;5574542;31;32406;-69
2022/07/15 12:34:58;;;;;;;3.97;1.20;;;;;;;31.93;20.56;100376.47;5588654;31;34180;-68
2022/07/15 12:38:01;;;;;;;2.22;1.20;;;;;;;33.94;19.16;100371.34;5588474;31;34541;-68
2022/07/15 12:41:21;;;;;;;3.72;1.05;;;;;;;36.09;16.91;100372.50;5590397;31;33914;-68
2022/07/15 12:44:23;;;;;;;;;;;;;;;35.10;17.85;100369.37;5591575;31;34263;-67
2022/07/15 12:47:26;;;;;;;2.40;1.00;;;;;;;37.82;15.81;100358.25;5590518;31;34316;-68
2022/07/15 12:50:49;;;;;;;2.00;1.20;;;;;;;36.99;16.76;100361.50;5589941;31;32778;-68
2022/07/15 12:54:05;;;;;;;;;;;;;;;37.59;15.62;100360.72;5591079;31;34644;-69
2022/07/15 12:57:30;;;;;;;2.50;1.12;;;;;;;39.43;14.05;100351.91;5590762;31;34238;-69
2022/07/15 13:00:34;;;;;;;1.92;0.98;;;;;;;36.68;16.07;100348.25;5590923;31;33959;-69
2022/07/15 13:03:38;;;;;;;3.20;1.12;;;;;;;39.04;14.64;100364.81;5590859;31;34267;-68
2022/07/15 13:06:41;;;;;;;1.92;1.10;;;;;;;37.86;15.42;100353.59;5589963;31;32677;-68
2022/07/15 13:09:44;;;;;;;3.62;0.90;;;;;;;37.58;15.63;100347.22;5590624;31;34654;-69
2022/07/15 13:12:47;;;;;;;2.22;1.15;;;;;;;37.38;14.79;100347.00;5590725;31;33890;-69
2022/07/15 13:15:51;;;;;;;2.22;0.82;;;;;;;37.55;15.20;100350.69;5589940;31;33398;-68
2022/07/15 13:18:53;;;;;;;2.05;1.20;;;;;;;35.47;16.61;100351.19;5589610;31;33206;-68
2022/07/15 13:21:56;;;;;;;2.40;1.10;;;;;;;37.68;14.59;100350.31;5589799;31;32542;-68
2022/07/15 13:24:59;;;;;;;4.60;1.10;;;;;;;34.55;16.08;100349.28;5590772;31;33923;-70
2022/07/15 13:28:06;;;;;;;1.85;1.08;;;;;;;34.70;15.66;100346.03;5589610;31;32603;-69
2022/07/15 13:31:09;;;;;;;3.42;1.12;;;;;;;35.64;15.34;100356.59;5590615;31;33975;-69
2022/07/15 13:34:13;;;;;;;4.95;1.20;;;;;;;32.87;17.79;100348.09;5589423;31;32878;-68
2022/07/15 13:37:16;;;;;;;2.80;1.35;;;;;;;31.99;18.69;100357.16;5589615;31;34888;-69
2022/07/15 13:40:19;;;;;;;2.50;1.08;;;;;;;30.66;20.09;100352.72;5589653;31;34067;-69
2022/07/15 13:43:22;;;;;;;1.92;1.00;;;;;;;33.45;17.61;100355.25;5589493;31;32481;-68
2022/07/15 13:46:25;;;;;;;3.40;1.10;;;;;;;33.75;17.54;100364.53;5590237;31;34539;-71
2022/07/15 13:52:54;;;;;;;2.53;1.35;;;;;;;36.46;14.88;100359.66;5548854;32;34175;-69
2022/07/15 13:55:57;;;;;;;2.40;1.15;;;;;;;36.46;15.00;100362.41;5536586;32;34061;-67
2022/07/15 13:59:01;;;;;;;2.30;1.25;;;;;;;37.70;13.34;100377.66;5549097;32;33884;-68
2022/07/15 14:02:04;;;;;;;2.25;1.20;;;;;;;36.71;14.71;100369.66;5549400;32;33958;-69
2022/07/15 14:05:08;;;;;;;5.87;1.20;;;;;;;37.40;14.13;100377.09;5549132;32;33841;-67
2022/07/15 14:08:11;;;;;;;1.75;0.98;;;;;;;36.32;14.39;100365.50;5549192;32;34177;-67
2022/07/15 14:11:14;;;;;;;4.32;1.10;;;;;;;37.15;14.21;100375.50;5548868;32;34054;-68
2022/07/15 14:14:18;;;;;;;3.37;1.08;;;;;;;36.63;14.60;100378.06;5549036;32;34680;-68
2022/07/15 14:17:21;;;;;;;2.78;1.00;;;;;;;34.73;15.47;100381.19;5548781;32;35162;-68
2022/07/15 14:20:24;;;;;;;6.12;1.10;;;;;;;35.16;15.50;100384.59;5548949;32;34054;-68
2022/07/15 14:23:27;;;;;;;3.40;1.10;;;;;;;34.43;16.60;100385.75;5549163;32;34035;-68
2022/07/15 14:26:30;;;;;;;3.28;1.00;;;;;;;32.41;18.37;100373.16;5548816;32;34509;-67
2022/07/15 14:29:35;;;;;;;1.58;0.95;;;;;;;30.58;20.64;100367.94;5555780;31;32381;-68
2022/07/15 14:32:39;;;;;;;1.62;1.05;;;;;;;30.61;19.82;100364.59;5575980;31;32721;-68
2022/07/15 14:35:44;;;;;;;2.75;1.17;;;;;;;30.64;20.22;100365.94;5590097;31;35263;-68
2022/07/15 14:38:47;;;;;;;2.75;1.23;;;;;;;29.65;20.42;100363.31;5575811;31;34043;-67